sensor_id;sensor_type;location;lat;lon;timestamp;pressure;altitude;pressure_sealevel;temperature;humidity
77776;BME280;66965;43.328;6.668;2023-02-18T00:01:39;103125.97;;;7.87;82.51
77776;BME280;66965;43.328;6.668;2023-02-18T00:04:05;103122.66;;;7.94;82.33
77776;BME280;66965;43.328;6.668;2023-02-18T00:06:34;103120.06;;;7.94;82.29
77776;BME280;66965;43.328;6.668;2023-02-18T00:09:01;103122.09;;;7.72;81.76
77776;BME280;66965;43.328;6.668;2023-02-18T00:11:29;103121.16;;;7.70;82.10
77776;BME280;66965;43.328;6.668;2023-02-18T00:13:57;103120.41;;;7.74;83.37
77776;BME280;66965;43.328;6.668;2023-02-18T00:16:25;103117.63;;;7.68;83.06
77776;BME280;66965;43.328;6.668;2023-02-18T00:18:54;103114.78;;;7.59;83.16
77776;BME280;66965;43.328;6.668;2023-02-18T00:21:20;103115.00;;;7.68;83.41
77776;BME280;66965;43.328;6.668;2023-02-18T00:23:45;103113.03;;;7.60;83.36
77776;BME280;66965;43.328;6.668;2023-02-18T00:26:13;103110.19;;;7.51;83.67
77776;BME280;66965;43.328;6.668;2023-02-18T00:28:39;103111.13;;;7.54;84.27
77776;BME280;66965;43.328;6.668;2023-02-18T00:31:10;103107.09;;;7.65;83.87
77776;BME280;66965;43.328;6.668;2023-02-18T00:33:36;103101.03;;;7.66;84.22
77776;BME280;66965;43.328;6.668;2023-02-18T00:36:03;103102.75;;;7.64;83.60
77776;BME280;66965;43.328;6.668;2023-02-18T00:38:29;103095.53;;;7.56;83.65
77776;BME280;66965;43.328;6.668;2023-02-18T00:40:55;103091.66;;;7.73;84.18
77776;BME280;66965;43.328;6.668;2023-02-18T00:43:20;103092.38;;;7.67;83.15
77776;BME280;66965;43.328;6.668;2023-02-18T00:45:45;103107.16;;;7.67;83.68
77776;BME280;66965;43.328;6.668;2023-02-18T00:48:11;103102.78;;;7.66;84.16
77776;BME280;66965;43.328;6.668;2023-02-18T00:50:36;103102.94;;;7.72;83.76
77776;BME280;66965;43.328;6.668;2023-02-18T00:53:02;103100.97;;;7.63;83.60
77776;BME280;66965;43.328;6.668;2023-02-18T00:55:27;103101.84;;;7.64;84.43
77776;BME280;66965;43.328;6.668;2023-02-18T00:57:53;103099.06;;;7.58;84.00
77776;BME280;66965;43.328;6.668;2023-02-18T01:00:19;103091.06;;;7.52;83.74
77776;BME280;66965;43.328;6.668;2023-02-18T01:02:44;103092.13;;;7.58;84.31
77776;BME280;66965;43.328;6.668;2023-02-18T01:05:10;103098.25;;;7.60;83.90
77776;BME280;66965;43.328;6.668;2023-02-18T01:07:35;103092.50;;;7.72;84.14
77776;BME280;66965;43.328;6.668;2023-02-18T01:10:01;103085.72;;;7.79;83.72
77776;BME280;66965;43.328;6.668;2023-02-18T01:12:26;103090.09;;;7.80;83.42
77776;BME280;66965;43.328;6.668;2023-02-18T01:14:51;103086.56;;;7.78;83.47
77776;BME280;66965;43.328;6.668;2023-02-18T01:17:17;103085.78;;;7.82;82.84
77776;BME280;66965;43.328;6.668;2023-02-18T01:19:42;103084.75;;;7.75;83.17
77776;BME280;66965;43.328;6.668;2023-02-18T01:22:08;103078.66;;;7.74;83.32
77776;BME280;66965;43.328;6.668;2023-02-18T01:24:33;103073.44;;;7.76;83.37
77776;BME280;66965;43.328;6.668;2023-02-18T01:26:59;103076.22;;;7.82;83.51
77776;BME280;66965;43.328;6.668;2023-02-18T01:29:24;103063.50;;;7.61;84.08
77776;BME280;66965;43.328;6.668;2023-02-18T01:31:50;103072.34;;;7.66;84.24
77776;BME280;66965;43.328;6.668;2023-02-18T01:34:15;103072.44;;;7.71;84.19
77776;BME280;66965;43.328;6.668;2023-02-18T01:36:41;103069.69;;;7.65;84.29
77776;BME280;66965;43.328;6.668;2023-02-18T01:39:06;103070.34;;;7.58;84.29
77776;BME280;66965;43.328;6.668;2023-02-18T01:41:32;103062.28;;;7.49;85.38
77776;BME280;66965;43.328;6.668;2023-02-18T01:44:16;103076.38;;;7.55;84.49
77776;BME280;66965;43.328;6.668;2023-02-18T01:46:43;103075.31;;;7.49;84.58
77776;BME280;66965;43.328;6.668;2023-02-18T01:49:09;103078.06;;;7.53;84.76
77776;BME280;66965;43.328;6.668;2023-02-18T01:51:41;103071.91;;;7.51;84.64
77776;BME280;66965;43.328;6.668;2023-02-18T01:57:02;103051.97;;;7.53;85.27
77776;BME280;66965;43.328;6.668;2023-02-18T01:59:33;103058.09;;;7.54;85.25
77776;BME280;66965;43.328;6.668;2023-02-18T02:02:01;103059.44;;;7.40;85.16
77776;BME280;66965;43.328;6.668;2023-02-18T02:04:26;103053.69;;;7.53;84.96
77776;BME280;66965;43.328;6.668;2023-02-18T02:06:52;103054.69;;;7.56;84.96
77776;BME280;66965;43.328;6.668;2023-02-18T02:09:18;103056.03;;;7.42;84.81
77776;BME280;66965;43.328;6.668;2023-02-18T02:33:23;103044.06;;;7.50;85.97
77776;BME280;66965;43.328;6.668;2023-02-18T02:36:35;103048.38;;;7.48;86.08
77776;BME280;66965;43.328;6.668;2023-02-18T02:41:45;103032.31;;;7.66;86.67
77776;BME280;66965;43.328;6.668;2023-02-18T02:44:35;103028.16;;;7.74;86.72
77776;BME280;66965;43.328;6.668;2023-02-18T02:50:07;103031.19;;;7.91;86.12
77776;BME280;66965;43.328;6.668;2023-02-18T02:52:40;103020.38;;;7.75;85.51
77776;BME280;66965;43.328;6.668;2023-02-18T02:55:10;103018.25;;;7.61;85.39
77776;BME280;66965;43.328;6.668;2023-02-18T03:00:05;103009.34;;;7.53;85.96
77776;BME280;66965;43.328;6.668;2023-02-18T03:11:10;103016.19;;;7.49;85.46
77776;BME280;66965;43.328;6.668;2023-02-18T03:19:15;103010.59;;;7.36;84.96
77776;BME280;66965;43.328;6.668;2023-02-18T03:21:50;103005.38;;;7.34;85.18
77776;BME280;66965;43.328;6.668;2023-02-18T03:26:56;103003.47;;;7.29;85.25
77776;BME280;66965;43.328;6.668;2023-02-18T03:29:24;103002.75;;;7.34;85.35
77776;BME280;66965;43.328;6.668;2023-02-18T03:31:54;103003.03;;;7.45;85.57
77776;BME280;66965;43.328;6.668;2023-02-18T03:34:25;103002.75;;;7.34;85.58
77776;BME280;66965;43.328;6.668;2023-02-18T03:36:54;103000.81;;;7.27;85.58
77776;BME280;66965;43.328;6.668;2023-02-18T03:39:22;102994.75;;;7.28;85.79
77776;BME280;66965;43.328;6.668;2023-02-18T03:41:48;102994.84;;;7.31;85.64
77776;BME280;66965;43.328;6.668;2023-02-18T03:44:14;103001.66;;;7.26;86.03
77776;BME280;66965;43.328;6.668;2023-02-18T03:46:41;103000.16;;;7.36;86.56
77776;BME280;66965;43.328;6.668;2023-02-18T03:49:08;103001.88;;;7.35;85.97
77776;BME280;66965;43.328;6.668;2023-02-18T03:51:34;102996.75;;;7.38;85.95
77776;BME280;66965;43.328;6.668;2023-02-18T03:54:00;103005.66;;;7.46;86.04
77776;BME280;66965;43.328;6.668;2023-02-18T03:56:25;102996.94;;;7.44;85.54
77776;BME280;66965;43.328;6.668;2023-02-18T03:58:51;102997.47;;;7.33;85.01
77776;BME280;66965;43.328;6.668;2023-02-18T04:01:16;102998.09;;;7.23;84.77
77776;BME280;66965;43.328;6.668;2023-02-18T04:03:42;102994.88;;;7.33;85.14
77776;BME280;66965;43.328;6.668;2023-02-18T04:06:07;102992.16;;;7.28;85.65
77776;BME280;66965;43.328;6.668;2023-02-18T04:08:34;103000.66;;;7.21;84.91
77776;BME280;66965;43.328;6.668;2023-02-18T04:11:00;102994.66;;;7.25;85.67
77776;BME280;66965;43.328;6.668;2023-02-18T04:13:26;102996.38;;;7.25;85.29
77776;BME280;66965;43.328;6.668;2023-02-18T04:15:52;102994.59;;;7.22;85.21
77776;BME280;66965;43.328;6.668;2023-02-18T04:18:18;102993.56;;;7.17;85.58
77776;BME280;66965;43.328;6.668;2023-02-18T04:20:43;102991.06;;;7.20;85.79
77776;BME280;66965;43.328;6.668;2023-02-18T04:23:11;102999.69;;;7.18;86.11
77776;BME280;66965;43.328;6.668;2023-02-18T04:25:36;102999.41;;;7.08;86.02
77776;BME280;66965;43.328;6.668;2023-02-18T04:28:02;103003.59;;;7.02;86.04
77776;BME280;66965;43.328;6.668;2023-02-18T04:30:27;103004.53;;;7.05;86.16
77776;BME280;66965;43.328;6.668;2023-02-18T04:32:53;103012.66;;;7.16;86.06
77776;BME280;66965;43.328;6.668;2023-02-18T04:35:18;103004.03;;;7.18;85.80
77776;BME280;66965;43.328;6.668;2023-02-18T04:37:44;103005.81;;;7.20;86.50
77776;BME280;66965;43.328;6.668;2023-02-18T04:40:10;103011.22;;;7.27;86.54
77776;BME280;66965;43.328;6.668;2023-02-18T04:42:36;103007.25;;;7.40;85.91
77776;BME280;66965;43.328;6.668;2023-02-18T04:45:01;103003.16;;;7.49;85.68
77776;BME280;66965;43.328;6.668;2023-02-18T04:47:27;103004.94;;;7.52;85.54
77776;BME280;66965;43.328;6.668;2023-02-18T04:49:53;103019.06;;;7.58;85.40
77776;BME280;66965;43.328;6.668;2023-02-18T04:52:18;103015.72;;;7.64;85.72
77776;BME280;66965;43.328;6.668;2023-02-18T04:54:44;103023.94;;;7.79;85.00
77776;BME280;66965;43.328;6.668;2023-02-18T04:57:09;103023.28;;;7.88;85.09
77776;BME280;66965;43.328;6.668;2023-02-18T04:59:35;103024.06;;;7.84;85.18
77776;BME280;66965;43.328;6.668;2023-02-18T05:02:00;103020.47;;;7.79;84.78
77776;BME280;66965;43.328;6.668;2023-02-18T05:04:26;103023.06;;;7.79;85.50
77776;BME280;66965;43.328;6.668;2023-02-18T05:06:51;103022.19;;;7.78;85.95
77776;BME280;66965;43.328;6.668;2023-02-18T05:09:17;103014.22;;;7.73;85.28
77776;BME280;66965;43.328;6.668;2023-02-18T05:11:42;103021.47;;;7.85;85.77
77776;BME280;66965;43.328;6.668;2023-02-18T05:14:08;103020.66;;;7.86;85.77
77776;BME280;66965;43.328;6.668;2023-02-18T05:16:33;103011.22;;;7.93;85.76
77776;BME280;66965;43.328;6.668;2023-02-18T05:18:59;103030.44;;;7.95;85.67
77776;BME280;66965;43.328;6.668;2023-02-18T05:21:25;103026.97;;;7.96;85.43
77776;BME280;66965;43.328;6.668;2023-02-18T05:23:50;103024.41;;;7.97;85.96
77776;BME280;66965;43.328;6.668;2023-02-18T05:26:16;103023.69;;;8.03;86.34
77776;BME280;66965;43.328;6.668;2023-02-18T05:28:42;103018.38;;;8.00;86.06
77776;BME280;66965;43.328;6.668;2023-02-18T05:31:07;103024.69;;;8.09;86.78
77776;BME280;66965;43.328;6.668;2023-02-18T05:33:32;103030.91;;;8.14;86.47
77776;BME280;66965;43.328;6.668;2023-02-18T05:35:58;103020.59;;;8.19;86.35
77776;BME280;66965;43.328;6.668;2023-02-18T05:38:23;103012.22;;;8.32;86.67
77776;BME280;66965;43.328;6.668;2023-02-18T05:40:49;103013.31;;;8.42;86.13
77776;BME280;66965;43.328;6.668;2023-02-18T05:43:15;103018.44;;;8.37;85.67
77776;BME280;66965;43.328;6.668;2023-02-18T05:45:40;103016.72;;;8.38;85.97
77776;BME280;66965;43.328;6.668;2023-02-18T05:48:06;103013.06;;;8.31;85.69
77776;BME280;66965;43.328;6.668;2023-02-18T05:50:31;103018.16;;;8.26;86.57
77776;BME280;66965;43.328;6.668;2023-02-18T05:52:57;103012.97;;;8.28;86.91
77776;BME280;66965;43.328;6.668;2023-02-18T05:55:23;103012.22;;;8.32;86.79
77776;BME280;66965;43.328;6.668;2023-02-18T05:57:49;103003.47;;;8.30;86.66
77776;BME280;66965;43.328;6.668;2023-02-18T06:00:14;103005.94;;;8.25;86.05
77776;BME280;66965;43.328;6.668;2023-02-18T06:02:40;103006.91;;;8.29;86.98
77776;BME280;66965;43.328;6.668;2023-02-18T06:05:06;103020.97;;;8.34;86.50
77776;BME280;66965;43.328;6.668;2023-02-18T06:07:31;103015.00;;;8.40;87.21
77776;BME280;66965;43.328;6.668;2023-02-18T06:09:57;103013.19;;;8.36;86.93
77776;BME280;66965;43.328;6.668;2023-02-18T06:12:22;103006.28;;;8.39;86.52
77776;BME280;66965;43.328;6.668;2023-02-18T06:14:48;103006.09;;;8.31;87.22
77776;BME280;66965;43.328;6.668;2023-02-18T06:17:14;103014.75;;;8.27;87.03
77776;BME280;66965;43.328;6.668;2023-02-18T06:19:40;103016.63;;;8.34;87.17
77776;BME280;66965;43.328;6.668;2023-02-18T06:22:06;103020.41;;;8.47;87.51
77776;BME280;66965;43.328;6.668;2023-02-18T06:24:32;103011.81;;;8.53;87.18
77776;BME280;66965;43.328;6.668;2023-02-18T06:26:58;103010.06;;;8.52;87.72
77776;BME280;66965;43.328;6.668;2023-02-18T06:29:24;103001.34;;;8.53;87.22
77776;BME280;66965;43.328;6.668;2023-02-18T06:31:49;103013.59;;;8.55;87.44
77776;BME280;66965;43.328;6.668;2023-02-18T06:34:15;103021.41;;;8.52;87.01
77776;BME280;66965;43.328;6.668;2023-02-18T06:36:40;103021.41;;;8.52;87.49
77776;BME280;66965;43.328;6.668;2023-02-18T06:39:06;103021.44;;;8.54;87.51
77776;BME280;66965;43.328;6.668;2023-02-18T06:41:32;103015.53;;;8.62;87.49
77776;BME280;66965;43.328;6.668;2023-02-18T06:43:58;103019.78;;;8.57;87.63
77776;BME280;66965;43.328;6.668;2023-02-18T06:46:24;103022.41;;;8.57;86.75
77776;BME280;66965;43.328;6.668;2023-02-18T06:48:49;103026.06;;;8.67;86.95
77776;BME280;66965;43.328;6.668;2023-02-18T06:51:15;103032.34;;;8.73;87.56
77776;BME280;66965;43.328;6.668;2023-02-18T06:53:41;103025.31;;;8.72;87.08
77776;BME280;66965;43.328;6.668;2023-02-18T06:56:08;103026.22;;;8.74;86.88
77776;BME280;66965;43.328;6.668;2023-02-18T06:58:33;103024.56;;;8.76;86.76
77776;BME280;66965;43.328;6.668;2023-02-18T07:00:59;103034.28;;;8.83;86.95
77776;BME280;66965;43.328;6.668;2023-02-18T07:03:24;103023.00;;;8.86;86.51
77776;BME280;66965;43.328;6.668;2023-02-18T07:05:50;103032.75;;;8.93;86.51
77776;BME280;66965;43.328;6.668;2023-02-18T07:08:16;103028.31;;;8.89;86.78
77776;BME280;66965;43.328;6.668;2023-02-18T07:10:41;103040.78;;;9.02;86.85
77776;BME280;66965;43.328;6.668;2023-02-18T07:13:07;103039.09;;;9.04;86.45
77776;BME280;66965;43.328;6.668;2023-02-18T07:15:32;103028.03;;;9.17;86.59
77776;BME280;66965;43.328;6.668;2023-02-18T07:17:58;103034.97;;;9.15;86.66
77776;BME280;66965;43.328;6.668;2023-02-18T07:20:24;103032.44;;;9.21;86.34
77776;BME280;66965;43.328;6.668;2023-02-18T07:22:50;103036.34;;;9.41;86.20
77776;BME280;66965;43.328;6.668;2023-02-18T07:25:16;103035.72;;;9.54;85.59
77776;BME280;66965;43.328;6.668;2023-02-18T07:27:41;103034.78;;;9.51;85.50
77776;BME280;66965;43.328;6.668;2023-02-18T07:30:07;103039.88;;;9.43;85.25
77776;BME280;66965;43.328;6.668;2023-02-18T07:32:33;103034.97;;;9.60;85.43
77776;BME280;66965;43.328;6.668;2023-02-18T07:34:59;103028.88;;;9.63;84.65
77776;BME280;66965;43.328;6.668;2023-02-18T07:37:24;103030.59;;;9.61;84.99
77776;BME280;66965;43.328;6.668;2023-02-18T07:39:50;103032.50;;;9.69;85.00
77776;BME280;66965;43.328;6.668;2023-02-18T07:42:15;103039.56;;;9.73;84.73
77776;BME280;66965;43.328;6.668;2023-02-18T07:44:41;103040.47;;;9.75;84.88
77776;BME280;66965;43.328;6.668;2023-02-18T07:47:08;103037.88;;;9.78;84.65
77776;BME280;66965;43.328;6.668;2023-02-18T07:49:34;103033.22;;;9.61;84.74
77776;BME280;66965;43.328;6.668;2023-02-18T07:52:00;103028.88;;;9.61;84.46
77776;BME280;66965;43.328;6.668;2023-02-18T07:54:26;103031.03;;;9.85;84.52
77776;BME280;66965;43.328;6.668;2023-02-18T07:56:53;103022.44;;;9.93;83.98
77776;BME280;66965;43.328;6.668;2023-02-18T07:59:19;103027.03;;;10.06;84.20
77776;BME280;66965;43.328;6.668;2023-02-18T08:01:45;103036.00;;;10.19;83.98
77776;BME280;66965;43.328;6.668;2023-02-18T08:04:10;103033.41;;;9.70;83.48
77776;BME280;66965;43.328;6.668;2023-02-18T08:06:41;103043.88;;;9.71;83.41
77776;BME280;66965;43.328;6.668;2023-02-18T08:09:08;103043.31;;;9.87;84.04
77776;BME280;66965;43.328;6.668;2023-02-18T08:11:34;103040.97;;;10.05;83.81
77776;BME280;66965;43.328;6.668;2023-02-18T08:13:59;103048.94;;;10.11;83.76
77776;BME280;66965;43.328;6.668;2023-02-18T08:16:25;103054.13;;;10.08;83.54
77776;BME280;66965;43.328;6.668;2023-02-18T08:18:52;103053.59;;;9.78;83.25
77776;BME280;66965;43.328;6.668;2023-02-18T08:21:20;103052.22;;;9.98;83.24
77776;BME280;66965;43.328;6.668;2023-02-18T08:23:46;103052.34;;;10.04;82.47
77776;BME280;66965;43.328;6.668;2023-02-18T08:26:12;103054.84;;;10.00;82.91
77776;BME280;66965;43.328;6.668;2023-02-18T08:28:38;103059.44;;;10.11;82.36
77776;BME280;66965;43.328;6.668;2023-02-18T08:31:04;103052.34;;;10.04;82.28
77776;BME280;66965;43.328;6.668;2023-02-18T08:33:29;103053.31;;;10.11;81.90
77776;BME280;66965;43.328;6.668;2023-02-18T08:35:55;103054.44;;;10.24;81.79
77776;BME280;66965;43.328;6.668;2023-02-18T08:38:22;103052.91;;;10.38;81.16
77776;BME280;66965;43.328;6.668;2023-02-18T08:40:48;103059.72;;;10.27;81.32
77776;BME280;66965;43.328;6.668;2023-02-18T08:43:14;103053.75;;;10.37;81.37
77776;BME280;66965;43.328;6.668;2023-02-18T08:45:41;103056.44;;;10.40;81.00
77776;BME280;66965;43.328;6.668;2023-02-18T08:48:14;103054.75;;;10.43;81.02
77776;BME280;66965;43.328;6.668;2023-02-18T08:50:40;103061.78;;;10.47;81.00
77776;BME280;66965;43.328;6.668;2023-02-18T08:53:06;103059.06;;;10.40;80.94
77776;BME280;66965;43.328;6.668;2023-02-18T08:55:33;103056.50;;;10.44;81.26
77776;BME280;66965;43.328;6.668;2023-02-18T08:57:59;103058.97;;;10.34;81.59
77776;BME280;66965;43.328;6.668;2023-02-18T09:00:25;103057.34;;;10.42;81.69
77776;BME280;66965;43.328;6.668;2023-02-18T09:02:51;103057.47;;;10.51;81.67
77776;BME280;66965;43.328;6.668;2023-02-18T09:05:17;103055.91;;;10.62;81.56
77776;BME280;66965;43.328;6.668;2023-02-18T09:07:42;103055.84;;;10.60;81.23
77776;BME280;66965;43.328;6.668;2023-02-18T09:10:09;103054.31;;;10.75;80.86
77776;BME280;66965;43.328;6.668;2023-02-18T09:12:34;103056.41;;;10.98;80.80
77776;BME280;66965;43.328;6.668;2023-02-18T09:15:00;103055.88;;;11.26;79.96
77776;BME280;66965;43.328;6.668;2023-02-18T09:17:26;103054.25;;;11.36;79.23
77776;BME280;66965;43.328;6.668;2023-02-18T09:19:52;103056.28;;;11.64;78.47
77776;BME280;66965;43.328;6.668;2023-02-18T09:22:18;103060.94;;;11.88;78.35
77776;BME280;66965;43.328;6.668;2023-02-18T09:24:44;103067.25;;;12.08;76.84
77776;BME280;66965;43.328;6.668;2023-02-18T09:27:09;103063.03;;;12.25;76.06
77776;BME280;66965;43.328;6.668;2023-02-18T09:29:37;103060.38;;;12.27;75.49
77776;BME280;66965;43.328;6.668;2023-02-18T09:32:05;103062.28;;;12.46;74.99
77776;BME280;66965;43.328;6.668;2023-02-18T09:34:31;103058.00;;;12.60;74.84
77776;BME280;66965;43.328;6.668;2023-02-18T09:36:57;103064.34;;;12.95;74.07
77776;BME280;66965;43.328;6.668;2023-02-18T09:39:22;103061.00;;;13.22;73.35
77776;BME280;66965;43.328;6.668;2023-02-18T09:41:56;103058.44;;;13.58;72.24
77776;BME280;66965;43.328;6.668;2023-02-18T09:44:37;103053.22;;;13.83;70.01
77776;BME280;66965;43.328;6.668;2023-02-18T09:47:12;103053.25;;;14.07;68.53
77776;BME280;66965;43.328;6.668;2023-02-18T09:49:44;103056.75;;;13.91;67.14
77776;BME280;66965;43.328;6.668;2023-02-18T09:52:19;103047.09;;;14.05;67.95
77776;BME280;66965;43.328;6.668;2023-02-18T09:54:48;103053.25;;;14.02;67.34
77776;BME280;66965;43.328;6.668;2023-02-18T09:57:23;103050.59;;;14.05;67.51
77776;BME280;66965;43.328;6.668;2023-02-18T09:59:56;103049.72;;;14.24;66.19
77776;BME280;66965;43.328;6.668;2023-02-18T10:02:24;103052.38;;;14.17;65.98
77776;BME280;66965;43.328;6.668;2023-02-18T10:04:51;103055.88;;;14.22;66.28
77776;BME280;66965;43.328;6.668;2023-02-18T10:07:27;103053.25;;;14.19;65.70
77776;BME280;66965;43.328;6.668;2023-02-18T10:09:56;103062.03;;;14.27;65.91
77776;BME280;66965;43.328;6.668;2023-02-18T10:12:24;103048.00;;;14.39;66.17
77776;BME280;66965;43.328;6.668;2023-02-18T10:14:58;103040.03;;;14.58;65.07
77776;BME280;66965;43.328;6.668;2023-02-18T10:17:27;103045.25;;;14.86;65.00
77776;BME280;66965;43.328;6.668;2023-02-18T10:19:55;103048.69;;;15.01;63.29
77776;BME280;66965;43.328;6.668;2023-02-18T10:22:23;103040.75;;;15.07;64.63
77776;BME280;66965;43.328;6.668;2023-02-18T10:24:59;103038.25;;;14.72;64.80
77776;BME280;66965;43.328;6.668;2023-02-18T10:27:30;103046.06;;;14.95;64.69
77776;BME280;66965;43.328;6.668;2023-02-18T10:30:23;103048.84;;;14.38;66.56
77776;BME280;66965;43.328;6.668;2023-02-18T10:32:51;103038.31;;;14.09;67.38
77776;BME280;66965;43.328;6.668;2023-02-18T10:38:15;103034.75;;;14.64;66.64
77776;BME280;66965;43.328;6.668;2023-02-18T10:41:04;103037.41;;;14.25;66.91
77776;BME280;66965;43.328;6.668;2023-02-18T10:46:32;103030.22;;;14.95;64.33
77776;BME280;66965;43.328;6.668;2023-02-18T10:51:39;103022.16;;;15.25;62.17
77776;BME280;66965;43.328;6.668;2023-02-18T10:54:09;103026.63;;;15.11;62.49
77776;BME280;66965;43.328;6.668;2023-02-18T10:56:40;103017.84;;;15.11;63.04
77776;BME280;66965;43.328;6.668;2023-02-18T10:59:13;103009.16;;;14.75;65.17
77776;BME280;66965;43.328;6.668;2023-02-18T11:01:40;103013.66;;;14.55;66.16
77776;BME280;66965;43.328;6.668;2023-02-18T11:04:17;103010.16;;;14.32;66.66
77776;BME280;66965;43.328;6.668;2023-02-18T11:06:50;103011.91;;;14.16;67.72
77776;BME280;66965;43.328;6.668;2023-02-18T11:17:32;103005.69;;;14.66;68.40
77776;BME280;66965;43.328;6.668;2023-02-18T11:20:00;103002.09;;;14.90;65.47
77776;BME280;66965;43.328;6.668;2023-02-18T11:22:33;103005.31;;;15.51;65.49
77776;BME280;66965;43.328;6.668;2023-02-18T11:25:03;102993.72;;;15.68;63.81
77776;BME280;66965;43.328;6.668;2023-02-18T11:27:48;102986.00;;;15.33;64.05
77776;BME280;66965;43.328;6.668;2023-02-18T11:30:30;102992.28;;;15.14;64.21
77776;BME280;66965;43.328;6.668;2023-02-18T11:33:02;102987.94;;;15.04;65.12
77776;BME280;66965;43.328;6.668;2023-02-18T11:35:30;102990.63;;;14.97;65.34
77776;BME280;66965;43.328;6.668;2023-02-18T11:37:59;102980.88;;;15.06;64.49
77776;BME280;66965;43.328;6.668;2023-02-18T11:40:30;102981.72;;;15.11;65.66
77776;BME280;66965;43.328;6.668;2023-02-18T11:43:14;102970.41;;;14.90;65.97
77776;BME280;66965;43.328;6.668;2023-02-18T11:45:41;102967.81;;;14.77;66.17
77776;BME280;66965;43.328;6.668;2023-02-18T11:50:34;102948.47;;;14.71;65.79
77776;BME280;66965;43.328;6.668;2023-02-18T11:53:00;102950.34;;;14.31;67.19
77776;BME280;66965;43.328;6.668;2023-02-18T11:55:56;102946.84;;;14.26;66.54
77776;BME280;66965;43.328;6.668;2023-02-18T11:58:22;102948.59;;;14.27;67.38
77776;BME280;66965;43.328;6.668;2023-02-18T12:00:50;102942.44;;;14.31;66.97
77776;BME280;66965;43.328;6.668;2023-02-18T12:05:47;102922.22;;;14.36;66.76
77776;BME280;66965;43.328;6.668;2023-02-18T12:08:26;102926.59;;;14.43;66.38
77776;BME280;66965;43.328;6.668;2023-02-18T12:11:03;102927.31;;;14.81;65.52
77776;BME280;66965;43.328;6.668;2023-02-18T12:13:37;102931.69;;;14.89;65.26
77776;BME280;66965;43.328;6.668;2023-02-18T12:18:55;102926.34;;;14.98;65.47
77776;BME280;66965;43.328;6.668;2023-02-18T12:21:29;102918.38;;;15.04;64.54
77776;BME280;66965;43.328;6.668;2023-02-18T12:35:08;102904.06;;;15.38;63.42
77776;BME280;66965;43.328;6.668;2023-02-18T12:44:00;102894.47;;;16.21;60.58
77776;BME280;66965;43.328;6.668;2023-02-18T12:48:40;102883.34;;;15.88;60.80
77776;BME280;66965;43.328;6.668;2023-02-18T12:54:16;102876.84;;;16.20;61.50
77776;BME280;66965;43.328;6.668;2023-02-18T13:18:00;102858.41;;;17.89;56.24
77776;BME280;66965;43.328;6.668;2023-02-18T13:20:44;102856.53;;;17.45;56.87
77776;BME280;66965;43.328;6.668;2023-02-18T13:23:23;102851.19;;;17.47;57.53
77776;BME280;66965;43.328;6.668;2023-02-18T13:25:56;102854.09;;;17.32;57.89
77776;BME280;66965;43.328;6.668;2023-02-18T13:28:43;102845.22;;;17.33;58.04
77776;BME280;66965;43.328;6.668;2023-02-18T13:36:34;102838.09;;;16.81;59.78
77776;BME280;66965;43.328;6.668;2023-02-18T13:39:05;102840.06;;;16.69;59.99
77776;BME280;66965;43.328;6.668;2023-02-18T13:41:40;102824.38;;;16.55;60.83
77776;BME280;66965;43.328;6.668;2023-02-18T13:44:08;102828.03;;;16.43;61.02
77776;BME280;66965;43.328;6.668;2023-02-18T13:46:53;102820.25;;;16.30;61.51
77776;BME280;66965;43.328;6.668;2023-02-18T13:49:24;102816.56;;;16.43;61.54
77776;BME280;66965;43.328;6.668;2023-02-18T13:51:53;102817.50;;;16.37;61.51
77776;BME280;66965;43.328;6.668;2023-02-18T13:56:59;102813.06;;;16.39;61.32
77776;BME280;66965;43.328;6.668;2023-02-18T13:59:43;102807.25;;;15.29;64.84
77776;BME280;66965;43.328;6.668;2023-02-18T14:39:36;102773.50;;;18.30;54.71
77776;BME280;66965;43.328;6.668;2023-02-18T14:42:13;102773.09;;;18.87;52.90
77776;BME280;66965;43.328;6.668;2023-02-18T14:50:24;102765.84;;;20.50;47.90
77776;BME280;66965;43.328;6.668;2023-02-18T14:52:56;102774.00;;;21.52;45.31
77776;BME280;66965;43.328;6.668;2023-02-18T14:55:27;102776.22;;;22.35;43.00
77776;BME280;66965;43.328;6.668;2023-02-18T14:58:00;102766.84;;;20.76;47.26
77776;BME280;66965;43.328;6.668;2023-02-18T15:00:27;102770.72;;;19.76;48.65
77776;BME280;66965;43.328;6.668;2023-02-18T15:02:57;102765.31;;;18.78;51.71
77776;BME280;66965;43.328;6.668;2023-02-18T15:05:29;102757.25;;;18.04;54.63
77776;BME280;66965;43.328;6.668;2023-02-18T15:08:09;102760.91;;;17.04;57.64
77776;BME280;66965;43.328;6.668;2023-02-18T15:13:35;102755.09;;;16.81;59.00
77776;BME280;66965;43.328;6.668;2023-02-18T15:16:06;102757.91;;;16.08;62.32
77776;BME280;66965;43.328;6.668;2023-02-18T15:18:36;102747.03;;;16.29;61.66
77776;BME280;66965;43.328;6.668;2023-02-18T15:21:04;102740.94;;;16.24;62.08
77776;BME280;66965;43.328;6.668;2023-02-18T15:23:34;102742.31;;;15.86;63.31
77776;BME280;66965;43.328;6.668;2023-02-18T15:26:00;102740.13;;;15.44;63.87
77776;BME280;66965;43.328;6.668;2023-02-18T15:28:28;102741.28;;;15.19;64.84
77776;BME280;66965;43.328;6.668;2023-02-18T15:30:59;102744.78;;;15.21;65.07
77776;BME280;66965;43.328;6.668;2023-02-18T15:33:25;102745.88;;;14.97;65.39
77776;BME280;66965;43.328;6.668;2023-02-18T15:35:51;102736.28;;;14.84;66.78
77776;BME280;66965;43.328;6.668;2023-02-18T15:38:18;102741.44;;;14.98;66.41
77776;BME280;66965;43.328;6.668;2023-02-18T15:40:50;102739.66;;;15.04;66.47
77776;BME280;66965;43.328;6.668;2023-02-18T15:43:22;102734.38;;;15.03;66.05
77776;BME280;66965;43.328;6.668;2023-02-18T15:45:50;102739.13;;;14.60;68.03
77776;BME280;66965;43.328;6.668;2023-02-18T15:50:52;102736.75;;;14.10;69.29
77776;BME280;66965;43.328;6.668;2023-02-18T15:53:19;102729.78;;;13.98;70.39
77776;BME280;66965;43.328;6.668;2023-02-18T15:55:47;102726.31;;;13.92;69.84